createdAt,value
2018-05-01T00:01:57.119Z,55.80
2018-05-01T00:04:24.131Z,55.80
2018-05-01T00:06:51.241Z,55.80
2018-05-01T00:09:18.249Z,55.80
2018-05-01T00:11:45.332Z,55.80
2018-05-01T00:14:13.848Z,55.90
2018-05-01T00:16:41.616Z,55.80
2018-05-01T00:19:08.624Z,55.80
2018-05-01T00:21:35.623Z,55.90
2018-05-01T00:24:02.620Z,55.90
2018-05-01T00:26:29.629Z,55.90
2018-05-01T00:28:56.639Z,55.90
2018-05-01T00:31:24.404Z,55.90
2018-05-01T00:33:52.239Z,55.90
2018-05-01T00:36:19.244Z,55.80
2018-05-01T00:38:46.267Z,55.90
2018-05-01T00:41:13.272Z,55.90
2018-05-01T00:43:40.272Z,55.90
2018-05-01T00:46:07.371Z,55.90
2018-05-01T00:48:34.373Z,55.80
2018-05-01T00:51:01.368Z,55.90
2018-05-01T00:53:29.141Z,55.90
2018-05-01T00:55:56.914Z,56.40
2018-05-01T00:58:24.683Z,55.90
2018-05-01T01:00:52.531Z,55.90
2018-05-01T01:03:20.304Z,56.20
2018-05-01T01:05:48.144Z,55.90
2018-05-01T01:08:15.155Z,55.80
2018-05-01T01:10:42.174Z,55.90
2018-05-01T01:13:09.187Z,55.90
2018-05-01T01:15:36.956Z,55.90
2018-05-01T01:18:03.968Z,55.90
2018-05-01T01:20:30.991Z,55.90
2018-05-01T01:22:57.996Z,55.90
2018-05-01T01:25:24.996Z,55.90
2018-05-01T01:27:52.092Z,55.90
2018-05-01T01:30:19.097Z,55.90
2018-05-01T01:32:46.099Z,55.90
2018-05-01T01:35:13.608Z,55.90
2018-05-01T01:37:40.352Z,55.90
2018-05-01T01:40:07.104Z,55.90
2018-05-01T01:42:33.852Z,55.90
2018-05-01T01:45:00.692Z,56.00
2018-05-01T01:47:27.452Z,55.90
2018-05-01T01:49:54.969Z,55.90
2018-05-01T01:52:21.836Z,55.90
2018-05-01T01:54:48.592Z,55.90
2018-05-01T01:57:16.133Z,55.90
2018-05-01T01:59:42.888Z,55.90
2018-05-01T02:02:10.414Z,55.90
2018-05-01T02:04:37.197Z,55.90
2018-05-01T02:07:04.717Z,56.00
2018-05-01T02:09:31.465Z,55.90
2018-05-01T02:11:58.215Z,55.90
2018-05-01T02:14:26.480Z,55.90
2018-05-01T02:16:53.239Z,55.90
2018-05-01T02:19:20.753Z,56.50
2018-05-01T02:21:47.496Z,55.90
2018-05-01T02:24:14.248Z,56.00
2018-05-01T02:26:40.996Z,55.90
2018-05-01T02:29:08.548Z,56.00
2018-05-01T02:31:35.396Z,56.00
2018-05-01T02:34:02.140Z,56.00
2018-05-01T02:36:28.887Z,55.90
2018-05-01T02:38:55.641Z,56.00
2018-05-01T02:41:23.157Z,56.00
2018-05-01T02:43:49.944Z,56.00
2018-05-01T02:46:17.468Z,56.00
2018-05-01T02:48:44.217Z,56.00
2018-05-01T02:51:10.985Z,56.00
2018-05-01T02:53:38.520Z,56.00
2018-05-01T02:56:05.271Z,56.00
2018-05-01T02:58:32.784Z,56.50
2018-05-01T03:00:59.549Z,56.00
2018-05-01T03:03:26.305Z,56.00
2018-05-01T03:05:53.080Z,56.00
2018-05-01T03:08:20.108Z,56.00
2018-05-01T03:10:47.656Z,56.00
2018-05-01T03:13:15.172Z,56.00
2018-05-01T03:15:41.936Z,56.00
2018-05-01T03:18:08.687Z,56.00
2018-05-01T03:20:35.435Z,56.00
2018-05-01T03:23:02.961Z,56.00
2018-05-01T03:25:29.708Z,55.90
2018-05-01T03:27:56.456Z,56.00
2018-05-01T03:30:23.300Z,56.00
2018-05-01T03:32:50.052Z,56.00
2018-05-01T03:35:16.809Z,56.00
2018-05-01T03:37:44.340Z,56.00
2018-05-01T03:40:11.096Z,56.00
2018-05-01T03:42:38.749Z,56.10
2018-05-01T03:45:05.585Z,56.00
2018-05-01T03:47:32.334Z,56.00
2018-05-01T03:49:59.840Z,56.70
2018-05-01T03:52:26.612Z,56.00
2018-05-01T03:54:53.764Z,56.00
2018-05-01T03:57:20.520Z,56.00
2018-05-01T03:59:48.027Z,56.00
2018-05-01T04:02:14.815Z,56.00
2018-05-01T04:04:41.560Z,56.00
2018-05-01T04:07:09.084Z,56.00
2018-05-01T04:09:35.846Z,56.00
2018-05-01T04:12:02.610Z,56.00
2018-05-01T04:14:30.152Z,56.00
2018-05-01T04:16:56.896Z,55.90
2018-05-01T04:19:24.413Z,56.00
2018-05-01T04:21:51.157Z,56.00
2018-05-01T04:24:17.904Z,56.00
2018-05-01T04:26:44.659Z,55.90
2018-05-01T04:29:11.400Z,56.00
2018-05-01T04:31:38.216Z,56.00
2018-05-01T04:34:05.080Z,56.00
2018-05-01T04:36:31.923Z,56.00
2018-05-01T04:38:58.735Z,56.00
2018-05-01T04:41:25.504Z,56.00
2018-05-01T04:43:52.253Z,56.00
2018-05-01T04:46:18.996Z,56.00
2018-05-01T04:48:46.521Z,56.00
2018-05-01T04:51:13.281Z,56.00
2018-05-01T04:53:40.033Z,56.00
2018-05-01T04:56:06.776Z,56.00
2018-05-01T04:58:34.321Z,56.00
2018-05-01T05:01:01.058Z,56.10
2018-05-01T05:03:27.800Z,56.00
2018-05-01T05:05:54.644Z,56.00
2018-05-01T05:08:21.389Z,56.00
2018-05-01T05:10:48.146Z,56.00
2018-05-01T05:13:15.682Z,56.00
2018-05-01T05:15:42.432Z,56.00
2018-05-01T05:18:09.183Z,56.00
2018-05-01T05:20:36.744Z,56.00
2018-05-01T05:23:04.277Z,56.10
2018-05-01T05:25:31.067Z,56.00
2018-05-01T05:27:57.853Z,56.00
2018-05-01T05:30:24.608Z,56.00
2018-05-01T05:32:51.358Z,56.00
2018-05-01T05:35:18.896Z,56.00
2018-05-01T05:37:45.644Z,56.00
2018-05-01T05:40:12.393Z,56.00
2018-05-01T05:42:39.912Z,56.00
2018-05-01T05:45:06.669Z,55.90
2018-05-01T05:47:33.412Z,55.90
2018-05-01T05:50:00.156Z,55.90
2018-05-01T05:52:26.919Z,55.90
2018-05-01T05:54:54.447Z,55.80
2018-05-01T05:57:22.708Z,55.70
2018-05-01T05:59:49.525Z,55.60
2018-05-01T06:02:16.308Z,55.70
2018-05-01T06:04:43.057Z,55.70
2018-05-01T06:07:09.799Z,55.60
2018-05-01T06:09:36.551Z,55.70
2018-05-01T06:12:04.111Z,55.50
2018-05-01T06:14:31.668Z,55.50
2018-05-01T06:16:59.180Z,55.40
2018-05-01T06:19:25.944Z,55.30
2018-05-01T06:21:52.751Z,55.30
2018-05-01T06:24:20.252Z,55.50
2018-05-01T06:26:47.026Z,55.40
2018-05-01T06:29:13.805Z,55.80
2018-05-01T06:31:40.798Z,55.20
2018-05-01T06:34:07.843Z,55.20
2018-05-01T06:36:35.361Z,55.10
2018-05-01T06:39:02.114Z,55.10
2018-05-01T06:41:28.887Z,55.10
2018-05-01T06:43:55.687Z,55.00
2018-05-01T06:46:25.193Z,54.90
2018-05-01T06:48:51.955Z,54.90
2018-05-01T06:51:18.711Z,55.00
2018-05-01T06:53:46.230Z,54.80
2018-05-01T06:56:13.018Z,54.70
2018-05-01T06:58:40.054Z,54.80
2018-05-01T07:01:07.704Z,54.80
2018-05-01T07:03:35.348Z,54.60
2018-05-01T07:06:03.607Z,54.60
2018-05-01T07:08:30.361Z,54.60
2018-05-01T07:10:57.212Z,54.40
2018-05-01T07:13:24.035Z,54.30
2018-05-01T07:15:50.875Z,54.60
2018-05-01T07:18:17.550Z,54.30
2018-05-01T07:20:45.066Z,54.20
2018-05-01T07:23:11.812Z,54.10
2018-05-01T07:25:38.560Z,54.20
2018-05-01T07:28:05.787Z,53.90
2018-05-01T07:30:32.537Z,53.70
2018-05-01T07:32:59.293Z,53.70
2018-05-01T07:35:26.142Z,54.80
2018-05-01T07:37:52.898Z,55.00
2018-05-01T07:40:19.655Z,53.70
2018-05-01T07:42:46.417Z,53.80
2018-05-01T07:45:13.165Z,53.00
2018-05-01T07:47:39.932Z,53.40
2018-05-01T07:50:06.880Z,53.00
2018-05-01T07:52:33.629Z,53.00
2018-05-01T07:55:00.375Z,53.00
2018-05-01T07:57:27.917Z,54.90
2018-05-01T07:59:56.175Z,53.80
2018-05-01T08:02:22.919Z,53.70
2018-05-01T08:04:49.665Z,53.90
2018-05-01T08:07:16.429Z,54.00
2018-05-01T08:09:43.972Z,53.60
2018-05-01T08:12:10.895Z,53.40
2018-05-01T08:14:37.581Z,53.60
2018-05-01T08:17:05.099Z,53.00
2018-05-01T08:19:31.840Z,53.00
2018-05-01T08:21:58.710Z,52.70
2018-05-01T08:24:26.313Z,51.50
2018-05-01T08:26:53.101Z,52.00
2018-05-01T08:29:19.941Z,52.10
2018-05-01T08:31:48.209Z,51.70
2018-05-01T08:34:14.968Z,51.60
2018-05-01T08:36:42.485Z,51.90
2018-05-01T08:39:09.395Z,51.70
2018-05-01T08:41:36.148Z,51.70
2018-05-01T08:44:02.892Z,51.60
2018-05-01T08:46:29.697Z,51.50
2018-05-01T08:48:57.244Z,51.70
2018-05-01T08:51:24.091Z,51.60
2018-05-01T08:53:51.636Z,51.10
2018-05-01T08:56:18.396Z,50.60
2018-05-01T08:58:45.932Z,50.80
2018-05-01T09:01:12.785Z,50.70
2018-05-01T09:03:40.294Z,50.50
2018-05-01T09:06:07.094Z,50.40
2018-05-01T09:08:34.630Z,50.60
2018-05-01T09:11:01.377Z,50.60
2018-05-01T09:13:28.127Z,50.30
2018-05-01T09:15:54.880Z,50.20
2018-05-01T09:18:22.569Z,50.30
2018-05-01T09:20:49.943Z,50.90
2018-05-01T09:23:16.787Z,50.30
2018-05-01T09:25:43.537Z,50.30
2018-05-01T09:28:10.345Z,50.60
2018-05-01T09:30:37.109Z,50.20
2018-05-01T09:33:03.857Z,51.50
2018-05-01T09:35:30.600Z,53.50
2018-05-01T09:37:57.354Z,53.80
2018-05-01T09:40:24.212Z,52.70
2018-05-01T09:42:51.799Z,51.50
2018-05-01T09:45:18.542Z,51.50
2018-05-01T09:47:45.290Z,50.60
2018-05-01T09:50:12.057Z,50.30
2018-05-01T09:52:39.068Z,50.60
2018-05-01T09:55:06.074Z,50.60
2018-05-01T09:57:33.897Z,51.00
2018-05-01T10:00:00.904Z,50.30
2018-05-01T10:02:28.677Z,51.20
2018-05-01T10:04:55.688Z,51.20
2018-05-01T10:07:22.722Z,50.80
2018-05-01T10:09:49.724Z,50.70
2018-05-01T10:12:16.880Z,51.20
2018-05-01T10:14:44.696Z,50.90
2018-05-01T10:17:11.700Z,50.90
2018-05-01T10:19:38.709Z,50.90
2018-05-01T10:22:06.489Z,51.40
2018-05-01T10:24:33.496Z,51.40
2018-05-01T10:27:00.504Z,50.90
2018-05-01T10:29:27.535Z,50.80
2018-05-01T10:31:54.547Z,51.20
2018-05-01T10:34:21.571Z,50.90
2018-05-01T10:36:48.581Z,51.30
2018-05-01T10:39:15.608Z,51.30
2018-05-01T10:41:42.613Z,50.70
2018-05-01T10:44:09.731Z,51.20
2018-05-01T10:46:36.746Z,50.60
2018-05-01T10:49:04.513Z,50.80
2018-05-01T10:51:31.516Z,50.80
2018-05-01T10:53:59.329Z,50.90
2018-05-01T10:56:26.386Z,50.30
2018-05-01T10:58:53.397Z,50.60
2018-05-01T11:01:21.180Z,50.80
2018-05-01T11:03:48.314Z,50.80
2018-05-01T11:06:16.098Z,50.50
2018-05-01T11:08:43.102Z,50.50
2018-05-01T11:11:10.129Z,50.90
2018-05-01T11:13:37.136Z,50.60
2018-05-01T11:16:04.142Z,50.30
2018-05-01T11:18:31.139Z,51.10
2018-05-01T11:20:58.147Z,50.20
2018-05-01T11:23:26.001Z,50.50
2018-05-01T11:25:53.064Z,50.10
2018-05-01T11:28:20.025Z,50.60
2018-05-01T11:30:47.029Z,50.60
2018-05-01T11:33:14.029Z,50.60
2018-05-01T11:35:41.037Z,50.60
2018-05-01T11:38:08.048Z,50.80
2018-05-01T11:40:35.157Z,50.20
2018-05-01T11:43:02.176Z,50.50
2018-05-01T11:45:29.182Z,50.60
2018-05-01T11:47:56.192Z,50.90
2018-05-01T11:50:23.213Z,50.00
2018-05-01T11:52:51.001Z,50.50
2018-05-01T11:55:18.774Z,50.30
2018-05-01T11:57:45.782Z,50.30
2018-05-01T12:00:12.789Z,50.60
2018-05-01T12:02:39.815Z,50.90
2018-05-01T12:05:06.813Z,50.90
2018-05-01T12:07:33.820Z,50.60
2018-05-01T12:10:00.828Z,50.50
2018-05-01T12:12:28.600Z,50.80
2018-05-01T12:14:56.370Z,50.90
2018-05-01T12:17:24.148Z,51.20
2018-05-01T12:19:51.155Z,51.20
2018-05-01T12:22:18.943Z,51.20
2018-05-01T12:24:46.716Z,51.50
2018-05-01T12:27:14.529Z,51.50
2018-05-01T12:29:41.548Z,51.50
2018-05-01T12:32:08.563Z,51.80
2018-05-01T12:34:36.361Z,51.40
2018-05-01T12:37:03.460Z,51.40
2018-05-01T12:39:30.812Z,51.30
2018-05-01T12:41:58.597Z,52.10
2018-05-01T12:44:26.364Z,52.20
2018-05-01T12:46:54.160Z,52.60
2018-05-01T12:49:21.156Z,52.60
2018-05-01T12:51:49.236Z,52.90
2018-05-01T12:54:16.557Z,52.80
2018-05-01T12:56:44.609Z,53.10
2018-05-01T12:59:11.898Z,53.00
2018-05-01T13:01:40.817Z,49.30
2018-05-01T13:04:07.821Z,48.70
2018-05-01T13:06:34.824Z,49.90
2018-05-01T13:09:01.851Z,49.30
2018-05-01T13:11:28.857Z,49.10
2018-05-01T13:13:55.865Z,49.30
2018-05-01T13:16:22.897Z,50.20
2018-05-01T13:18:49.900Z,51.40
2018-05-01T13:21:17.688Z,51.90
2018-05-01T13:23:45.456Z,52.00
2018-05-01T13:26:13.240Z,51.40
2018-05-01T13:28:40.244Z,51.40
2018-05-01T13:31:07.279Z,51.20
2018-05-01T13:33:34.294Z,52.00
2018-05-01T13:36:01.297Z,52.70
2018-05-01T13:38:29.088Z,50.90
2018-05-01T13:40:56.096Z,50.90
2018-05-01T13:43:24.055Z,52.00
2018-05-01T13:45:51.076Z,51.70
2018-05-01T13:48:18.080Z,52.50
2018-05-01T13:50:45.107Z,52.80
2018-05-01T13:53:12.889Z,47.80
2018-05-01T13:55:39.894Z,47.80
2018-05-01T13:58:06.912Z,49.90
2018-05-01T14:00:33.940Z,48.80
2018-05-01T14:03:00.967Z,49.50
2018-05-01T14:05:28.752Z,50.70
2018-05-01T14:07:55.855Z,50.70
2018-05-01T14:10:22.865Z,51.10
2018-05-01T14:12:49.884Z,51.90
2018-05-01T14:15:16.888Z,52.30
2018-05-01T14:17:43.892Z,52.60
2018-05-01T14:20:10.940Z,52.60
2018-05-01T14:22:37.941Z,52.70
2018-05-01T14:25:04.963Z,52.60
2018-05-01T14:27:31.984Z,52.70
2018-05-01T14:29:59.020Z,52.80
2018-05-01T14:32:26.026Z,52.80
2018-05-01T14:34:53.041Z,51.80
2018-05-01T14:37:20.065Z,51.20
2018-05-01T14:39:47.084Z,51.10
2018-05-01T14:42:14.846Z,52.20
2018-05-01T14:44:42.628Z,52.60
2018-05-01T14:47:09.704Z,52.60
2018-05-01T14:49:36.757Z,52.40
2018-05-01T14:52:03.784Z,52.70
2018-05-01T14:54:30.785Z,53.00
2018-05-01T14:56:58.559Z,53.00
2018-05-01T14:59:26.334Z,53.00
2018-05-01T15:01:54.802Z,52.90
2018-05-01T15:04:22.613Z,53.10
2018-05-01T15:06:49.615Z,53.00
2018-05-01T15:09:18.400Z,53.10
2018-05-01T15:11:47.525Z,53.30
2018-05-01T15:14:15.216Z,53.10
2018-05-01T15:16:42.971Z,53.20
2018-05-01T15:19:10.917Z,53.40
2018-05-01T15:21:39.053Z,53.50
2018-05-01T15:24:06.843Z,52.50
2018-05-01T15:26:33.860Z,52.20
2018-05-01T15:29:01.629Z,49.40
2018-05-01T15:31:29.405Z,49.50
2018-05-01T15:33:56.409Z,49.50
2018-05-01T15:36:23.464Z,50.80
2018-05-01T15:38:50.501Z,51.20
2018-05-01T15:41:17.560Z,52.00
2018-05-01T15:43:44.569Z,52.70
2018-05-01T15:46:11.661Z,52.70
2018-05-01T15:48:38.713Z,52.70
2018-05-01T15:51:06.481Z,53.30
2018-05-01T15:53:34.259Z,52.90
2018-05-01T15:56:02.034Z,52.80
2018-05-01T15:58:29.061Z,52.70
2018-05-01T16:00:56.852Z,53.00
2018-05-01T16:03:23.911Z,53.00
2018-05-01T16:05:50.951Z,53.10
2018-05-01T16:08:17.971Z,53.10
2018-05-01T16:10:45.153Z,53.10
2018-05-01T16:13:12.576Z,53.00
2018-05-01T16:15:39.608Z,53.10
2018-05-01T16:18:07.385Z,53.20
2018-05-01T16:20:35.149Z,53.20
2018-05-01T16:23:02.925Z,53.20
2018-05-01T16:25:29.924Z,53.10
2018-05-01T16:27:56.941Z,53.20
2018-05-01T16:30:23.996Z,53.30
2018-05-01T16:32:51.007Z,53.20
2018-05-01T16:35:18.024Z,53.30
2018-05-01T16:37:45.020Z,53.30
2018-05-01T16:40:13.146Z,53.30
2018-05-01T16:42:40.121Z,53.30
2018-05-01T16:45:07.151Z,53.30
2018-05-01T16:47:34.942Z,53.30
2018-05-01T16:50:01.941Z,53.20
2018-05-01T16:52:28.936Z,53.30
2018-05-01T16:54:55.940Z,53.20
2018-05-01T16:57:22.940Z,53.30
2018-05-01T16:59:49.944Z,53.30
2018-05-01T17:02:16.948Z,53.30
2018-05-01T17:04:43.964Z,53.40
2018-05-01T17:07:10.985Z,53.30
2018-05-01T17:09:38.753Z,53.30
2018-05-01T17:12:05.792Z,53.30
2018-05-01T17:14:33.556Z,53.40
2018-05-01T17:17:01.345Z,53.30
2018-05-01T17:19:28.456Z,53.20
2018-05-01T17:21:56.225Z,53.40
2018-05-01T17:24:23.997Z,53.40
2018-05-01T17:26:51.760Z,53.40
2018-05-01T17:29:19.548Z,53.30
2018-05-01T17:31:46.556Z,53.30
2018-05-01T17:34:13.556Z,53.20
2018-05-01T17:36:40.556Z,53.40
2018-05-01T17:39:08.320Z,53.40
2018-05-01T17:41:35.325Z,53.30
2018-05-01T17:44:02.324Z,53.40
2018-05-01T17:46:29.329Z,53.40
2018-05-01T17:48:56.339Z,53.30
2018-05-01T17:51:23.349Z,53.70
2018-05-01T17:53:51.133Z,53.60
2018-05-01T17:56:18.133Z,53.70
2018-05-01T17:58:45.220Z,53.50
2018-05-01T18:01:13.008Z,53.50
2018-05-01T18:03:40.153Z,53.40
2018-05-01T18:06:07.192Z,53.40
2018-05-01T18:08:34.343Z,53.30
2018-05-01T18:11:01.450Z,53.40
2018-05-01T18:13:28.460Z,53.30
2018-05-01T18:15:55.469Z,53.40
2018-05-01T18:18:22.543Z,53.30
2018-05-01T18:20:49.546Z,52.80
2018-05-01T18:23:17.375Z,53.10
2018-05-01T18:25:44.345Z,53.00
2018-05-01T18:28:12.125Z,53.10
2018-05-01T18:30:39.966Z,53.20
2018-05-01T18:33:06.979Z,53.20
2018-05-01T18:35:34.064Z,53.30
2018-05-01T18:38:01.093Z,53.30
2018-05-01T18:40:28.109Z,53.20
2018-05-01T18:42:55.117Z,53.10
2018-05-01T18:45:22.981Z,53.30
2018-05-01T18:47:50.762Z,52.90
2018-05-01T18:50:18.533Z,51.90
2018-05-01T18:52:45.537Z,51.90
2018-05-01T18:55:12.535Z,51.70
2018-05-01T18:57:39.554Z,51.90
2018-05-01T19:00:07.332Z,52.60
2018-05-01T19:02:34.349Z,52.60
2018-05-01T19:05:01.389Z,53.00
2018-05-01T19:07:28.475Z,52.80
2018-05-01T19:09:55.489Z,52.70
2018-05-01T19:12:22.509Z,53.10
2018-05-01T19:14:49.527Z,52.80
2018-05-01T19:17:16.556Z,52.10
2018-05-01T19:19:43.564Z,52.30
2018-05-01T19:22:10.851Z,52.30
2018-05-01T19:24:37.980Z,52.60
2018-05-01T19:27:04.993Z,52.70
2018-05-01T19:29:31.996Z,52.50
2018-05-01T19:31:59.005Z,53.00
2018-05-01T19:34:26.026Z,53.00
2018-05-01T19:36:53.048Z,53.10
2018-05-01T19:39:20.060Z,53.10
2018-05-01T19:41:47.836Z,53.10
2018-05-01T19:44:15.677Z,53.10
2018-05-01T19:46:42.808Z,53.10
2018-05-01T19:49:09.820Z,53.10
2018-05-01T19:51:36.851Z,53.10
2018-05-01T19:54:03.856Z,53.20
2018-05-01T19:56:30.958Z,53.10
2018-05-01T19:58:57.925Z,53.10
2018-05-01T20:01:24.949Z,53.20
2018-05-01T20:03:51.978Z,53.10
2018-05-01T20:06:19.756Z,53.20
2018-05-01T20:08:46.990Z,53.20
2018-05-01T20:11:14.110Z,53.30
2018-05-01T20:13:41.125Z,53.10
2018-05-01T20:16:08.897Z,52.90
2018-05-01T20:18:35.925Z,53.10
2018-05-01T20:21:02.936Z,53.10
2018-05-01T20:23:30.705Z,53.10
2018-05-01T20:25:58.484Z,53.10
2018-05-01T20:28:25.494Z,53.10
2018-05-01T20:33:25.871Z,53.10
2018-05-01T20:35:52.871Z,53.10
2018-05-01T20:38:19.881Z,53.20
2018-05-01T20:40:46.894Z,53.20
2018-05-01T20:43:14.665Z,53.20
2018-05-01T20:45:41.677Z,53.10
2018-05-01T20:48:08.688Z,53.20
2018-05-01T20:50:35.706Z,53.30
2018-05-01T20:53:02.707Z,53.30
2018-05-01T20:55:29.716Z,53.40
2018-05-01T20:57:56.721Z,53.40
2018-05-01T21:00:24.569Z,54.10
2018-05-01T21:02:51.573Z,53.40
2018-05-01T21:05:18.616Z,53.40
2018-05-01T21:07:45.632Z,53.40
2018-05-01T21:10:13.401Z,53.40
2018-05-01T21:12:40.434Z,53.40
2018-05-01T21:15:08.196Z,53.40
2018-05-01T21:17:35.969Z,53.40
2018-05-01T21:20:03.745Z,53.40
2018-05-01T21:22:30.755Z,53.40
2018-05-01T21:24:57.794Z,53.40
2018-05-01T21:27:24.800Z,54.00
2018-05-01T21:29:51.800Z,53.40
2018-05-01T21:32:18.820Z,53.40
2018-05-01T21:34:45.824Z,53.40
2018-05-01T21:37:12.836Z,53.50
2018-05-01T21:39:39.886Z,53.40
2018-05-01T21:42:06.888Z,53.50
2018-05-01T21:44:33.899Z,53.40
2018-05-01T21:47:01.668Z,53.40
2018-05-01T21:49:28.728Z,53.40
2018-05-01T21:51:55.833Z,53.40
2018-05-01T21:54:22.841Z,53.40
2018-05-01T21:56:49.845Z,53.40
2018-05-01T21:59:17.616Z,53.00
2018-05-01T22:01:45.379Z,53.40
2018-05-01T22:04:13.147Z,53.40
2018-05-01T22:06:40.196Z,53.30
2018-05-01T22:09:07.201Z,53.30
2018-05-01T22:11:34.206Z,53.30
2018-05-01T22:14:01.224Z,53.20
2018-05-01T22:16:29.010Z,54.00
2018-05-01T22:18:56.069Z,53.30
2018-05-01T22:21:23.088Z,53.10
2018-05-01T22:23:50.856Z,53.00
2018-05-01T22:26:17.863Z,52.90
2018-05-01T22:28:44.880Z,53.20
2018-05-01T22:31:11.888Z,53.10
2018-05-01T22:33:39.651Z,53.00
2018-05-01T22:36:07.424Z,53.20
2018-05-01T22:38:34.437Z,53.20
2018-05-01T22:41:01.448Z,53.30
2018-05-01T22:43:28.451Z,53.00
2018-05-01T22:45:56.220Z,53.40
2018-05-01T22:48:23.223Z,53.40
2018-05-01T22:50:50.239Z,53.90
2018-05-01T22:53:17.372Z,53.20
2018-05-01T22:55:44.365Z,53.10
2018-05-01T22:58:11.367Z,53.00
2018-05-01T23:00:38.380Z,52.90
2018-05-01T23:03:06.150Z,52.90
2018-05-01T23:05:33.925Z,52.80
2018-05-01T23:08:01.698Z,53.00
2018-05-01T23:10:28.696Z,52.90
2018-05-01T23:12:55.708Z,52.90
2018-05-01T23:15:22.716Z,52.60
2018-05-01T23:17:50.480Z,52.70
2018-05-01T23:20:18.259Z,52.60
2018-05-01T23:22:45.269Z,52.50
2018-05-01T23:25:12.285Z,52.20
2018-05-01T23:27:39.285Z,52.10
2018-05-01T23:30:07.052Z,51.70
2018-05-01T23:32:34.861Z,52.00
2018-05-01T23:35:01.871Z,52.00
2018-05-01T23:37:28.915Z,51.90
2018-05-01T23:39:56.032Z,51.80
2018-05-01T23:42:23.805Z,52.20
2018-05-01T23:44:50.816Z,51.70
2018-05-01T23:47:17.824Z,52.30
2018-05-01T23:49:44.828Z,51.70
2018-05-01T23:52:11.976Z,51.60
2018-05-01T23:54:39.120Z,51.50
2018-05-01T23:57:06.115Z,51.40
2018-05-01T23:59:33.200Z,51.50
